createdAt,value
2018-05-12T00:00:38.985Z,10.13
2018-05-12T00:03:06.500Z,9.30
2018-05-12T00:05:33.910Z,9.03
2018-05-12T00:08:01.303Z,10.73
2018-05-12T00:10:28.879Z,10.80
2018-05-12T00:12:56.292Z,10.20
2018-05-12T00:15:23.717Z,10.83
2018-05-12T00:17:51.286Z,10.30
2018-05-12T00:20:18.817Z,10.87
2018-05-12T00:22:46.732Z,10.73
2018-05-12T00:25:14.137Z,9.97
2018-05-12T00:27:41.655Z,10.67
2018-05-12T00:30:09.071Z,10.27
2018-05-12T00:32:36.539Z,9.00
2018-05-12T00:35:04.067Z,12.30
2018-05-12T00:37:31.459Z,11.40
2018-05-12T00:39:58.919Z,10.50
2018-05-12T00:42:26.365Z,10.33
2018-05-12T00:44:53.779Z,11.43
2018-05-12T00:47:21.202Z,11.53
2018-05-12T00:49:48.660Z,10.57
2018-05-12T00:52:16.100Z,11.07
2018-05-12T00:54:43.506Z,14.40
2018-05-12T00:57:11.091Z,12.10
2018-05-12T00:59:38.554Z,11.73
2018-05-12T01:02:06.005Z,11.03
2018-05-12T01:04:33.476Z,11.97
2018-05-12T01:07:00.919Z,15.80
2018-05-12T01:09:28.323Z,11.80
2018-05-12T01:11:55.747Z,11.27
2018-05-12T01:14:23.184Z,14.97
2018-05-12T01:16:51.072Z,12.13
2018-05-12T01:19:18.516Z,13.40
2018-05-12T01:21:45.978Z,11.87
2018-05-12T01:24:13.483Z,11.50
2018-05-12T01:26:40.987Z,11.60
2018-05-12T01:29:08.403Z,16.17
2018-05-12T01:31:35.809Z,11.63
2018-05-12T01:34:03.217Z,10.43
2018-05-12T01:36:30.623Z,17.37
2018-05-12T01:38:58.087Z,10.80
2018-05-12T01:41:25.489Z,14.10
2018-05-12T01:43:53.389Z,11.80
2018-05-12T01:46:20.792Z,11.27
2018-05-12T01:48:48.244Z,10.60
2018-05-12T01:51:15.685Z,11.67
2018-05-12T01:53:43.113Z,12.37
2018-05-12T01:56:10.562Z,10.97
2018-05-12T01:58:38.006Z,11.60
2018-05-12T02:01:05.427Z,13.23
2018-05-12T02:03:32.827Z,11.90
2018-05-12T02:06:00.322Z,12.03
2018-05-12T02:08:27.710Z,12.70
2018-05-12T02:10:55.332Z,13.47
2018-05-12T02:13:22.771Z,12.77
2018-05-12T02:15:50.212Z,12.40
2018-05-12T02:18:17.633Z,11.93
2018-05-12T02:20:45.076Z,11.37
2018-05-12T02:23:12.524Z,11.57
2018-05-12T02:25:39.937Z,12.70
2018-05-12T02:28:07.360Z,12.23
2018-05-12T02:30:34.772Z,10.60
2018-05-12T02:33:02.467Z,11.20
2018-05-12T02:35:29.874Z,16.73
2018-05-12T02:37:57.422Z,12.90
2018-05-12T02:40:24.836Z,11.33
2018-05-12T02:42:52.416Z,11.50
2018-05-12T02:45:19.825Z,12.13
2018-05-12T02:47:47.259Z,11.00
2018-05-12T02:50:14.708Z,11.23
2018-05-12T02:52:42.129Z,11.63
2018-05-12T02:55:09.980Z,12.10
2018-05-12T02:57:37.403Z,11.87
2018-05-12T03:00:04.915Z,12.03
2018-05-12T03:02:32.344Z,13.00
2018-05-12T03:05:00.049Z,12.70
2018-05-12T03:07:27.502Z,13.57
2018-05-12T03:09:54.925Z,12.10
2018-05-12T03:12:22.524Z,12.63
2018-05-12T03:14:49.965Z,13.90
2018-05-12T03:17:17.414Z,12.47
2018-05-12T03:19:44.839Z,12.47
2018-05-12T03:22:12.232Z,12.30
2018-05-12T03:24:39.878Z,12.97
2018-05-12T03:27:07.281Z,11.47
2018-05-12T03:29:34.784Z,11.27
2018-05-12T03:32:02.332Z,11.50
2018-05-12T03:34:29.779Z,12.60
2018-05-12T03:36:57.174Z,13.13
2018-05-12T03:39:24.608Z,22.17
2018-05-12T03:41:52.317Z,12.60
2018-05-12T03:44:19.768Z,11.80
2018-05-12T03:46:47.214Z,13.20
2018-05-12T03:49:14.628Z,12.07
2018-05-12T03:51:42.051Z,12.63
2018-05-12T03:54:09.471Z,12.10
2018-05-12T03:56:36.907Z,12.10
2018-05-12T03:59:04.358Z,13.87
2018-05-12T04:01:31.924Z,13.10
2018-05-12T04:03:59.409Z,13.17
2018-05-12T04:06:38.553Z,13.17
2018-05-12T04:09:17.688Z,13.43
2018-05-12T04:11:56.759Z,12.30
2018-05-12T04:14:24.172Z,13.97
2018-05-12T04:16:51.625Z,13.70
2018-05-12T04:19:19.016Z,12.20
2018-05-12T04:21:46.444Z,12.37
2018-05-12T04:24:13.851Z,11.30
2018-05-12T04:26:41.280Z,12.90
2018-05-12T04:29:08.730Z,11.43
2018-05-12T04:31:36.155Z,12.13
2018-05-12T04:34:03.563Z,11.20
2018-05-12T04:36:31.080Z,11.67
2018-05-12T04:38:58.510Z,11.27
2018-05-12T04:41:28.530Z,13.20
2018-05-12T04:43:55.947Z,11.10
2018-05-12T04:46:23.364Z,12.63
2018-05-12T04:48:50.775Z,12.93
2018-05-12T04:51:18.214Z,12.23
2018-05-12T04:53:45.803Z,12.20
2018-05-12T04:56:13.228Z,11.37
2018-05-12T04:58:40.641Z,12.93
2018-05-12T05:01:08.126Z,12.20
2018-05-12T05:03:35.568Z,13.13
2018-05-12T05:06:03.130Z,14.03
2018-05-12T05:08:30.929Z,12.10
2018-05-12T05:10:58.330Z,12.70
2018-05-12T05:13:26.051Z,12.60
2018-05-12T05:15:53.496Z,13.60
2018-05-12T05:18:20.915Z,13.30
2018-05-12T05:20:48.721Z,12.53
2018-05-12T05:23:16.124Z,12.80
2018-05-12T05:25:43.532Z,14.40
2018-05-12T05:28:11.206Z,12.77
2018-05-12T05:30:39.048Z,12.93
2018-05-12T05:33:06.483Z,11.90
2018-05-12T05:35:33.887Z,13.10
2018-05-12T05:38:01.341Z,12.90
2018-05-12T05:40:28.983Z,13.27
2018-05-12T05:42:56.384Z,12.73
2018-05-12T05:45:24.015Z,12.30
2018-05-12T05:47:51.408Z,13.20
2018-05-12T05:50:18.915Z,11.57
2018-05-12T05:52:46.341Z,12.33
2018-05-12T05:55:14.092Z,12.20
2018-05-12T05:57:41.696Z,12.83
2018-05-12T06:00:09.268Z,12.73
2018-05-12T06:02:36.730Z,12.40
2018-05-12T06:05:04.478Z,13.03
2018-05-12T06:07:32.091Z,12.70
2018-05-12T06:09:59.565Z,13.73
2018-05-12T06:12:27.192Z,11.70
2018-05-12T06:14:54.650Z,12.63
2018-05-12T06:17:22.082Z,11.13
2018-05-12T06:19:49.508Z,12.00
2018-05-12T06:22:17.130Z,11.87
2018-05-12T06:24:44.541Z,12.57
2018-05-12T06:27:11.964Z,12.93
2018-05-12T06:29:39.433Z,12.13
2018-05-12T06:32:06.855Z,12.37
2018-05-12T06:34:34.267Z,12.93
2018-05-12T06:37:01.754Z,11.73
2018-05-12T06:39:29.164Z,12.63
2018-05-12T06:41:56.573Z,11.70
2018-05-12T06:44:24.031Z,13.20
2018-05-12T06:46:51.473Z,12.57
2018-05-12T06:49:19.156Z,15.80
2018-05-12T06:51:46.612Z,14.67
2018-05-12T06:54:13.992Z,14.30
2018-05-12T06:56:41.529Z,15.07
2018-05-12T06:59:09.175Z,15.30
2018-05-12T07:01:36.588Z,15.77
2018-05-12T07:04:04.020Z,16.07
2018-05-12T07:06:31.744Z,14.73
2018-05-12T07:08:59.155Z,15.63
2018-05-12T07:11:26.558Z,15.50
2018-05-12T07:13:54.042Z,14.80
2018-05-12T07:16:21.501Z,16.20
2018-05-12T07:18:48.932Z,16.83
2018-05-12T07:21:16.417Z,15.80
2018-05-12T07:23:43.828Z,16.70
2018-05-12T07:26:11.252Z,16.33
2018-05-12T07:28:38.684Z,16.50
2018-05-12T07:31:06.124Z,17.23
2018-05-12T07:33:33.568Z,17.10
2018-05-12T07:36:00.976Z,16.63
2018-05-12T07:38:28.408Z,15.87
2018-05-12T07:40:55.818Z,18.73
2018-05-12T07:43:23.400Z,16.80
2018-05-12T07:45:50.897Z,19.23
2018-05-12T07:48:18.302Z,20.20
2018-05-12T07:50:45.717Z,20.50
2018-05-12T07:53:13.115Z,17.83
2018-05-12T07:55:40.619Z,18.13
2018-05-12T07:58:08.743Z,19.57
2018-05-12T08:00:36.257Z,18.97
2018-05-12T08:03:03.683Z,19.73
2018-05-12T08:05:31.285Z,20.20
2018-05-12T08:07:58.937Z,19.53
2018-05-12T08:10:26.432Z,20.33
2018-05-12T08:12:53.877Z,18.83
2018-05-12T08:15:21.278Z,19.77
2018-05-12T08:17:48.771Z,19.60
2018-05-12T08:20:16.247Z,20.40
2018-05-12T08:22:43.668Z,21.83
2018-05-12T08:25:11.094Z,20.80
2018-05-12T08:27:38.532Z,21.13
2018-05-12T08:30:06.001Z,22.87
2018-05-12T08:32:33.445Z,20.30
2018-05-12T08:35:00.874Z,19.30
2018-05-12T08:37:28.766Z,19.27
2018-05-12T08:39:56.511Z,22.03
2018-05-12T08:42:23.961Z,19.10
2018-05-12T08:44:51.440Z,20.57
2018-05-12T08:47:18.947Z,19.27
2018-05-12T08:49:46.412Z,18.53
2018-05-12T08:52:13.828Z,18.70
2018-05-12T08:54:41.356Z,19.70
2018-05-12T08:57:08.762Z,19.40
2018-05-12T08:59:36.178Z,20.27
2018-05-12T09:02:03.585Z,23.13
2018-05-12T09:04:31.019Z,25.53
2018-05-12T09:06:58.423Z,21.13
2018-05-12T09:09:25.846Z,21.30
2018-05-12T09:11:53.251Z,19.60
2018-05-12T09:14:20.673Z,18.53
2018-05-12T09:16:48.101Z,18.40
2018-05-12T09:19:15.552Z,17.17
2018-05-12T09:21:42.966Z,18.67
2018-05-12T09:24:10.437Z,17.03
2018-05-12T09:26:37.884Z,15.20
2018-05-12T09:29:05.383Z,13.70
2018-05-12T09:31:32.781Z,14.50
2018-05-12T09:34:00.233Z,11.33
2018-05-12T09:36:28.082Z,14.20
2018-05-12T09:38:55.536Z,11.23
2018-05-12T09:41:22.957Z,10.87
2018-05-12T09:43:50.356Z,10.17
2018-05-12T09:46:17.787Z,9.40
2018-05-12T09:48:45.200Z,10.63
2018-05-12T09:51:12.621Z,10.13
2018-05-12T09:53:40.244Z,10.00
2018-05-12T09:56:07.676Z,9.40
2018-05-12T09:58:35.213Z,10.90
2018-05-12T10:01:02.923Z,13.93
2018-05-12T10:03:30.443Z,9.03
2018-05-12T10:05:57.821Z,10.73
2018-05-12T10:08:25.337Z,10.37
2018-05-12T10:10:52.752Z,9.63
2018-05-12T10:13:20.317Z,10.27
2018-05-12T10:15:47.746Z,10.97
2018-05-12T10:18:15.238Z,9.60
2018-05-12T10:20:42.689Z,10.50
2018-05-12T10:23:10.120Z,10.60
2018-05-12T10:25:37.876Z,13.17
2018-05-12T10:28:05.304Z,10.33
2018-05-12T10:30:32.708Z,11.00
2018-05-12T10:33:00.214Z,10.47
2018-05-12T10:35:27.645Z,9.93
2018-05-12T10:37:55.204Z,10.83
2018-05-12T10:40:22.600Z,10.17
2018-05-12T10:42:50.013Z,11.57
2018-05-12T10:45:17.588Z,10.67
2018-05-12T10:47:45.017Z,9.00
2018-05-12T10:50:12.453Z,10.00
2018-05-12T10:52:40.047Z,9.90
2018-05-12T10:55:07.622Z,10.97
2018-05-12T10:57:35.079Z,9.53
2018-05-12T11:00:02.599Z,9.97
2018-05-12T11:02:30.007Z,9.10
2018-05-12T11:04:57.465Z,8.77
2018-05-12T11:07:25.035Z,8.97
2018-05-12T11:09:52.477Z,9.17
2018-05-12T11:12:19.888Z,10.40
2018-05-12T11:14:47.336Z,7.70
2018-05-12T11:17:14.730Z,9.93
2018-05-12T11:19:42.695Z,8.83
2018-05-12T11:22:10.149Z,9.20
2018-05-12T11:24:37.642Z,9.27
2018-05-12T11:27:05.233Z,7.77
2018-05-12T11:29:32.693Z,10.13
2018-05-12T11:32:00.128Z,9.70
2018-05-12T11:34:27.570Z,8.93
2018-05-12T11:36:55.117Z,9.43
2018-05-12T11:39:22.560Z,8.30
2018-05-12T11:41:50.076Z,9.67
2018-05-12T11:44:17.491Z,8.43
2018-05-12T11:46:44.905Z,8.60
2018-05-12T11:49:12.312Z,7.97
2018-05-12T11:51:39.761Z,9.67
2018-05-12T11:54:07.257Z,9.60
2018-05-12T11:56:34.612Z,11.20
2018-05-12T11:59:02.361Z,17.43
2018-05-12T12:01:29.759Z,7.97
2018-05-12T12:03:57.167Z,7.67
2018-05-12T12:06:24.596Z,7.47
2018-05-12T12:08:51.980Z,6.53
2018-05-12T12:11:19.395Z,8.10
2018-05-12T12:13:46.863Z,6.87
2018-05-12T12:16:14.259Z,9.50
2018-05-12T12:18:41.652Z,7.90
2018-05-12T12:21:09.068Z,8.10
2018-05-12T12:23:36.484Z,12.77
2018-05-12T12:26:04.577Z,8.90
2018-05-12T12:28:31.998Z,7.80
2018-05-12T12:31:00.419Z,6.87
2018-05-12T12:33:27.820Z,8.10
2018-05-12T12:35:55.256Z,10.60
2018-05-12T12:38:22.672Z,6.90
2018-05-12T12:40:50.119Z,7.33
2018-05-12T12:43:17.518Z,8.33
2018-05-12T12:45:44.931Z,7.03
2018-05-12T12:48:12.337Z,8.00
2018-05-12T12:50:39.736Z,6.63
2018-05-12T12:53:07.144Z,8.93
2018-05-12T12:55:34.554Z,10.30
2018-05-12T12:58:01.980Z,6.93
2018-05-12T13:00:29.369Z,6.50
2018-05-12T13:02:56.788Z,6.23
2018-05-12T13:05:24.185Z,7.53
2018-05-12T13:07:51.619Z,7.00
2018-05-12T13:10:19.050Z,7.40
2018-05-12T13:12:46.463Z,6.07
2018-05-12T13:15:14.331Z,8.03
2018-05-12T13:17:41.750Z,7.93
2018-05-12T13:20:09.168Z,7.40
2018-05-12T13:22:36.601Z,7.10
2018-05-12T13:25:04.016Z,7.17
2018-05-12T13:27:31.424Z,8.60
2018-05-12T13:29:58.958Z,6.53
2018-05-12T13:32:26.405Z,6.03
2018-05-12T13:34:53.960Z,6.73
2018-05-12T13:37:21.353Z,6.60
2018-05-12T13:39:48.763Z,6.97
2018-05-12T13:42:16.203Z,7.20
2018-05-12T13:44:43.646Z,6.77
2018-05-12T13:47:11.061Z,6.90
2018-05-12T13:49:38.499Z,7.20
2018-05-12T13:52:05.898Z,7.63
2018-05-12T13:54:33.323Z,6.90
2018-05-12T13:57:00.727Z,8.90
2018-05-12T13:59:28.212Z,6.90
2018-05-12T14:01:55.721Z,6.20
2018-05-12T14:04:23.186Z,6.67
2018-05-12T14:06:50.572Z,7.00
2018-05-12T14:09:17.996Z,6.93
2018-05-12T14:11:45.414Z,6.70
2018-05-12T14:14:12.822Z,6.90
2018-05-12T14:16:40.238Z,6.00
2018-05-12T14:19:07.624Z,6.60
2018-05-12T14:21:35.133Z,6.83
2018-05-12T14:24:02.573Z,7.23
2018-05-12T14:26:30.011Z,6.93
2018-05-12T14:28:57.450Z,6.07
2018-05-12T14:31:24.943Z,7.27
2018-05-12T14:33:52.350Z,6.80
2018-05-12T14:36:19.804Z,7.07
2018-05-12T14:38:47.236Z,7.20
2018-05-12T14:41:14.666Z,6.47
2018-05-12T14:43:42.088Z,6.50
2018-05-12T14:46:09.479Z,6.30
2018-05-12T14:48:36.892Z,6.63
2018-05-12T14:51:04.503Z,6.17
2018-05-12T14:53:32.389Z,6.87
2018-05-12T14:56:00.143Z,6.47
2018-05-12T14:58:27.570Z,6.50
2018-05-12T15:00:55.015Z,7.17
2018-05-12T15:03:22.508Z,7.67
2018-05-12T15:05:49.930Z,6.20
2018-05-12T15:08:17.348Z,7.00
2018-05-12T15:10:44.781Z,6.70
2018-05-12T15:13:12.191Z,6.40
2018-05-12T15:15:39.801Z,10.47
2018-05-12T15:18:07.229Z,6.33
2018-05-12T15:20:34.618Z,7.20
2018-05-12T15:23:02.071Z,5.93
2018-05-12T15:25:29.468Z,5.90
2018-05-12T15:27:57.067Z,7.27
2018-05-12T15:30:24.438Z,6.30
2018-05-12T15:32:51.862Z,9.33
2018-05-12T15:35:19.283Z,8.70
2018-05-12T15:37:46.692Z,8.37
2018-05-12T15:40:14.113Z,6.10
2018-05-12T15:42:41.549Z,6.40
2018-05-12T15:45:08.946Z,5.93
2018-05-12T15:47:36.336Z,6.30
2018-05-12T15:50:03.888Z,6.90
2018-05-12T15:52:31.258Z,6.93
2018-05-12T15:54:58.753Z,11.90
2018-05-12T15:57:26.219Z,9.37
2018-05-12T15:59:53.576Z,6.10
2018-05-12T16:02:21.014Z,8.60
2018-05-12T16:04:48.417Z,8.53
2018-05-12T16:07:15.842Z,7.53
2018-05-12T16:09:43.253Z,7.33
2018-05-12T16:12:10.729Z,5.93
2018-05-12T16:14:38.152Z,13.13
2018-05-12T16:17:05.598Z,6.10
2018-05-12T16:19:32.981Z,6.33
2018-05-12T16:22:00.528Z,6.80
2018-05-12T16:24:27.949Z,5.67
2018-05-12T16:26:55.361Z,6.27
2018-05-12T16:29:22.803Z,7.87
2018-05-12T16:31:50.247Z,7.43
2018-05-12T16:34:17.631Z,6.67
2018-05-12T16:36:45.063Z,8.20
2018-05-12T16:39:12.476Z,7.73
2018-05-12T16:41:39.869Z,6.70
2018-05-12T16:44:07.296Z,6.87
2018-05-12T16:46:34.704Z,5.80
2018-05-12T16:49:02.102Z,5.80
2018-05-12T16:51:29.513Z,6.90
2018-05-12T16:53:56.897Z,6.23
2018-05-12T16:56:24.372Z,7.10
2018-05-12T16:58:51.747Z,7.30
2018-05-12T17:01:19.144Z,6.70
2018-05-12T17:03:46.564Z,7.27
2018-05-12T17:06:13.956Z,6.70
2018-05-12T17:08:41.389Z,6.97
2018-05-12T17:11:08.785Z,7.37
2018-05-12T17:13:36.200Z,7.70
2018-05-12T17:16:03.618Z,6.43
2018-05-12T17:18:31.057Z,6.30
2018-05-12T17:20:58.624Z,6.60
2018-05-12T17:23:26.027Z,6.50
2018-05-12T17:25:53.458Z,6.70
2018-05-12T17:28:20.924Z,6.63
2018-05-12T17:30:48.393Z,7.00
2018-05-12T17:33:15.806Z,6.43
2018-05-12T17:35:43.263Z,7.40
2018-05-12T17:38:10.681Z,6.73
2018-05-12T17:40:38.114Z,6.50
2018-05-12T17:43:05.576Z,7.53
2018-05-12T17:45:33.099Z,6.97
2018-05-12T17:48:00.506Z,6.70
2018-05-12T17:50:27.956Z,6.70
2018-05-12T17:52:55.385Z,6.93
2018-05-12T17:55:22.816Z,9.40
2018-05-12T17:57:50.232Z,7.27
2018-05-12T18:00:17.655Z,6.97
2018-05-12T18:02:45.173Z,5.80
2018-05-12T18:05:12.593Z,9.23
2018-05-12T18:07:40.007Z,6.27
2018-05-12T18:10:07.436Z,6.17
2018-05-12T18:12:34.847Z,5.77
2018-05-12T18:15:02.313Z,6.53
2018-05-12T18:17:29.701Z,6.67
2018-05-12T18:19:57.122Z,8.07
2018-05-12T18:22:24.728Z,6.70
2018-05-12T18:24:52.167Z,6.53
2018-05-12T18:27:19.607Z,6.23
2018-05-12T18:29:47.064Z,6.77
2018-05-12T18:32:14.505Z,6.77
2018-05-12T18:34:41.905Z,6.80
2018-05-12T18:37:09.355Z,7.20
2018-05-12T18:39:36.767Z,7.17
2018-05-12T18:42:04.175Z,7.20
2018-05-12T18:44:31.604Z,8.63
2018-05-12T18:46:59.029Z,6.70
2018-05-12T18:49:26.463Z,8.40
2018-05-12T18:51:53.879Z,9.93
2018-05-12T18:54:21.305Z,8.90
2018-05-12T18:56:48.803Z,20.47
2018-05-12T18:59:16.234Z,10.27
2018-05-12T19:01:43.683Z,14.27
2018-05-12T19:04:11.092Z,12.27
2018-05-12T19:06:38.520Z,11.20
2018-05-12T19:09:09.256Z,9.30
2018-05-12T19:11:35.971Z,7.87
2018-05-12T19:14:02.705Z,7.00
2018-05-12T19:16:29.425Z,8.20
2018-05-12T19:18:56.151Z,7.03
2018-05-12T19:21:23.147Z,6.47
2018-05-12T19:23:49.872Z,6.83
2018-05-12T19:26:16.561Z,6.80
2018-05-12T19:28:43.300Z,7.67
2018-05-12T19:31:09.997Z,7.33
2018-05-12T19:33:36.684Z,7.60
2018-05-12T19:36:03.597Z,7.57
2018-05-12T19:38:30.506Z,7.17
2018-05-12T19:40:57.212Z,6.40
2018-05-12T19:43:24.034Z,7.00
2018-05-12T19:45:50.742Z,7.40
2018-05-12T19:48:17.465Z,7.07
2018-05-12T19:50:44.407Z,7.43
2018-05-12T19:53:11.085Z,7.57
2018-05-12T19:55:37.826Z,7.23
2018-05-12T19:58:04.719Z,7.90
2018-05-12T20:00:31.518Z,8.70
2018-05-12T20:02:58.236Z,7.43
2018-05-12T20:05:25.035Z,8.23
2018-05-12T20:07:51.854Z,7.20
2018-05-12T20:10:18.558Z,7.27
2018-05-12T20:12:45.295Z,7.43
2018-05-12T20:15:12.284Z,6.90
2018-05-12T20:17:38.989Z,7.17
2018-05-12T20:20:05.668Z,12.20
2018-05-12T20:22:32.433Z,7.40
2018-05-12T20:24:59.073Z,7.40
2018-05-12T20:27:25.800Z,7.27
2018-05-12T20:29:52.504Z,7.73
2018-05-12T20:32:19.231Z,7.00
2018-05-12T20:34:45.940Z,7.93
2018-05-12T20:37:12.683Z,8.30
2018-05-12T20:39:39.389Z,9.33
2018-05-12T20:42:06.083Z,10.87
2018-05-12T20:44:32.781Z,11.00
2018-05-12T20:46:59.525Z,17.43
2018-05-12T20:49:26.257Z,13.60
2018-05-12T20:51:53.020Z,10.00
2018-05-12T20:54:19.732Z,9.90
2018-05-12T20:56:46.460Z,8.53
2018-05-12T20:59:13.180Z,8.63
2018-05-12T21:01:39.910Z,8.60
2018-05-12T21:04:06.734Z,8.23
2018-05-12T21:06:33.490Z,8.67
2018-05-12T21:09:00.287Z,8.43
2018-05-12T21:11:27.026Z,10.93
2018-05-12T21:13:53.767Z,9.20
2018-05-12T21:16:20.808Z,8.40
2018-05-12T21:18:47.683Z,8.10
2018-05-12T21:21:14.446Z,9.00
2018-05-12T21:23:41.245Z,8.80
2018-05-12T21:26:07.883Z,8.00
2018-05-12T21:28:34.614Z,7.60
2018-05-12T21:31:01.455Z,7.90
2018-05-12T21:33:28.189Z,8.63
2018-05-12T21:35:54.879Z,10.13
2018-05-12T21:38:21.842Z,6.50
2018-05-12T21:40:48.541Z,7.80
2018-05-12T21:43:15.293Z,7.30
2018-05-12T21:45:42.013Z,7.90
2018-05-12T21:48:08.723Z,7.10
2018-05-12T21:50:35.423Z,8.00
2018-05-12T21:53:02.125Z,7.17
2018-05-12T21:55:29.071Z,7.80
2018-05-12T21:57:55.760Z,6.93
2018-05-12T22:00:22.503Z,7.83
2018-05-12T22:02:49.268Z,7.17
2018-05-12T22:05:15.998Z,7.00
2018-05-12T22:07:42.783Z,12.90
2018-05-12T22:10:09.431Z,7.07
2018-05-12T22:12:36.255Z,7.40
2018-05-12T22:15:02.956Z,7.60
2018-05-12T22:17:29.695Z,7.47
2018-05-12T22:19:56.462Z,6.83
2018-05-12T22:22:23.177Z,7.40
2018-05-12T22:24:49.858Z,7.30
2018-05-12T22:27:16.556Z,6.30
2018-05-12T22:29:43.272Z,7.77
2018-05-12T22:32:10.247Z,7.40
2018-05-12T22:34:36.952Z,7.20
2018-05-12T22:37:03.888Z,7.17
2018-05-12T22:39:30.605Z,7.80
2018-05-12T22:41:57.289Z,7.23
2018-05-12T22:44:23.991Z,6.33
2018-05-12T22:46:50.744Z,7.10
2018-05-12T22:49:17.434Z,6.73
2018-05-12T22:51:44.114Z,7.80
2018-05-12T22:54:10.818Z,7.50
2018-05-12T22:56:37.746Z,7.13
2018-05-12T22:59:04.494Z,7.30
2018-05-12T23:01:31.241Z,8.07
2018-05-12T23:03:58.198Z,7.80
2018-05-12T23:06:24.821Z,7.33
2018-05-12T23:08:51.512Z,6.87
2018-05-12T23:11:18.210Z,6.80
2018-05-12T23:13:44.934Z,7.10
2018-05-12T23:16:11.652Z,7.37
2018-05-12T23:18:38.367Z,7.43
2018-05-12T23:21:05.208Z,8.03
2018-05-12T23:23:31.902Z,6.90
2018-05-12T23:25:58.685Z,7.13
2018-05-12T23:28:25.791Z,6.60
2018-05-12T23:30:52.527Z,6.93
2018-05-12T23:33:19.226Z,7.20
2018-05-12T23:35:45.952Z,7.40
2018-05-12T23:38:12.657Z,7.77
2018-05-12T23:40:39.520Z,9.67
2018-05-12T23:43:06.330Z,10.53
2018-05-12T23:45:33.023Z,7.20
2018-05-12T23:47:59.746Z,7.20
2018-05-12T23:50:26.459Z,6.80
2018-05-12T23:52:53.130Z,7.77
2018-05-12T23:55:20.129Z,8.23
2018-05-12T23:57:46.851Z,7.00
